Time;durP1;ratioP1;P1;durP2;ratioP2;P2;SDS_P1;SDS_P2;PMS_P1;PMS_P2;Temp;Humidity;BMP_temperature;BMP_pressure;BME280_temperature;BME280_humidity;BME280_pressure;Samples;Min_cycle;Max_cycle;Signal;HPM_P1;HPM_P2
2023/07/08 00:00:13;;;;;;;5.23;2.97;;;11.80;99.90;;;;;;5053485;28;20208;-69
2023/07/08 00:03:01;;;;;;;5.53;3.00;;;11.80;99.90;;;;;;5053663;28;20222;-68
2023/07/08 00:05:49;;;;;;;3.70;2.50;;;11.80;99.90;;;;;;5053316;28;20297;-69
2023/07/08 00:08:36;;;;;;;5.17;2.90;;;11.70;99.90;;;;;;5053535;28;20663;-69
2023/07/08 00:11:23;;;;;;;3.87;2.73;;;11.70;99.90;;;;;;5053423;28;20204;-69
2023/07/08 00:14:11;;;;;;;8.53;2.97;;;11.60;99.90;;;;;;5053497;28;20195;-69
2023/07/08 00:16:58;;;;;;;3.77;3.00;;;11.50;99.90;;;;;;5053436;28;20212;-69
2023/07/08 00:19:47;;;;;;;5.37;3.00;;;11.40;99.90;;;;;;5053151;28;20204;-69
2023/07/08 00:22:36;;;;;;;9.83;3.27;;;11.50;99.90;;;;;;5053012;28;20204;-69
2023/07/08 00:25:23;;;;;;;3.13;2.63;;;11.50;99.90;;;;;;5052967;28;20212;-69
2023/07/08 00:28:11;;;;;;;3.83;3.17;;;11.40;99.90;;;;;;5053246;28;20274;-69
2023/07/08 00:30:58;;;;;;;5.10;2.63;;;11.40;99.90;;;;;;5052991;28;20198;-69
2023/07/08 00:33:45;;;;;;;5.30;2.77;;;11.40;99.90;;;;;;5052494;28;20203;-69
2023/07/08 00:36:34;;;;;;;8.93;3.07;;;11.30;99.90;;;;;;5053113;28;20201;-68
2023/07/08 00:39:21;;;;;;;4.73;2.80;;;11.20;99.90;;;;;;5052828;28;20224;-69
2023/07/08 00:42:14;;;;;;;5.23;3.00;;;11.20;99.90;;;;;;5052754;28;20678;-69
2023/07/08 00:45:02;;;;;;;7.17;3.13;;;11.20;99.90;;;;;;5052835;28;20199;-69
2023/07/08 00:47:50;;;;;;;4.07;3.00;;;11.30;99.90;;;;;;5069291;28;20200;-69
2023/07/08 00:50:37;;;;;;;5.57;2.70;;;11.30;99.90;;;;;;5072117;28;20207;-69
2023/07/08 00:53:31;;;;;;;3.37;2.73;;;11.40;99.90;;;;;;5072137;28;20195;-69
2023/07/08 00:56:21;;;;;;;6.97;3.20;;;11.30;99.90;;;;;;5071806;28;20313;-69
2023/07/08 00:59:10;;;;;;;9.57;2.90;;;11.30;99.90;;;;;;5072208;28;20204;-69
2023/07/08 01:01:57;;;;;;;5.10;3.00;;;11.20;99.90;;;;;;5072224;28;20610;-69
2023/07/08 01:04:48;;;;;;;5.07;3.17;;;11.20;99.90;;;;;;5072085;28;20240;-69
2023/07/08 01:07:35;;;;;;;7.00;3.10;;;11.10;99.90;;;;;;5071722;28;20566;-69
2023/07/08 01:10:27;;;;;;;3.23;2.70;;;11.20;99.90;;;;;;5071849;28;20203;-69
2023/07/08 01:13:15;;;;;;;4.50;2.70;;;11.20;99.90;;;;;;5072435;28;20269;-69
2023/07/08 01:16:02;;;;;;;3.33;2.80;;;11.20;99.90;;;;;;5071939;28;20194;-69
2023/07/08 01:18:52;;;;;;;4.33;2.53;;;11.20;99.90;;;;;;5072373;28;20205;-69
2023/07/08 01:21:45;;;;;;;5.23;2.70;;;11.20;99.90;;;;;;5071994;28;20828;-69
2023/07/08 01:24:34;;;;;;;5.17;2.50;;;11.20;99.90;;;;;;5071697;28;20217;-69
2023/07/08 01:27:21;;;;;;;4.13;2.83;;;11.20;99.90;;;;;;5071966;28;20597;-69
2023/07/08 01:30:09;;;;;;;3.50;2.83;;;11.20;99.90;;;;;;5071971;28;20253;-69
2023/07/08 01:32:57;;;;;;;5.33;2.87;;;11.10;99.90;;;;;;5071911;28;20660;-69
2023/07/08 01:35:44;;;;;;;3.77;2.80;;;11.10;99.90;;;;;;5071718;28;20253;-69
2023/07/08 01:38:33;;;;;;;9.23;2.57;;;11.10;99.90;;;;;;5072043;28;20225;-69
2023/07/08 01:41:20;;;;;;;6.03;2.70;;;11.10;99.90;;;;;;5071452;28;20567;-69
2023/07/08 01:44:22;;;;;;;5.97;3.03;;;11.10;99.90;;;;;;5071440;28;20208;-69
2023/07/08 01:47:11;;;;;;;6.13;3.13;;;11.10;99.90;;;;;;5060516;28;20197;-69
2023/07/08 01:49:59;;;;;;;5.53;2.83;;;11.10;99.90;;;;;;5051955;28;20234;-69
2023/07/08 01:52:46;;;;;;;7.00;2.77;;;11.10;99.90;;;;;;5052118;28;20577;-69
2023/07/08 01:55:34;;;;;;;3.90;2.83;;;11.10;99.90;;;;;;5052095;28;20208;-69
2023/07/08 01:58:22;;;;;;;4.47;3.00;;;11.00;99.90;;;;;;5052250;28;20245;-69
2023/07/08 02:01:09;;;;;;;3.67;2.63;;;10.90;99.90;;;;;;5052147;28;20214;-69
2023/07/08 02:03:56;;;;;;;5.00;3.00;;;10.90;99.90;;;;;;5051807;28;20210;-69
2023/07/08 02:06:43;;;;;;;5.47;3.00;;;10.90;99.90;;;;;;5051974;28;20197;-69
2023/07/08 02:09:30;;;;;;;5.97;2.90;;;10.90;99.90;;;;;;5055015;28;20210;-69
2023/07/08 02:12:19;;;;;;;4.60;3.10;;;10.90;99.90;;;;;;5055612;28;20235;-69
2023/07/08 02:15:08;;;;;;;4.43;2.73;;;10.80;99.90;;;;;;5055767;28;20236;-69
2023/07/08 02:17:55;;;;;;;5.40;2.90;;;10.80;99.90;;;;;;5055454;28;20205;-69
2023/07/08 02:20:43;;;;;;;4.97;2.80;;;10.70;99.90;;;;;;5055670;28;20267;-69
2023/07/08 02:23:30;;;;;;;4.10;2.77;;;10.70;99.90;;;;;;5055119;28;20223;-69
2023/07/08 02:26:17;;;;;;;5.00;2.93;;;10.70;99.90;;;;;;5055534;28;20230;-70
2023/07/08 02:29:06;;;;;;;3.73;2.83;;;10.70;99.90;;;;;;5055765;28;20640;-70
2023/07/08 02:31:53;;;;;;;4.37;3.00;;;10.70;99.90;;;;;;5055148;28;20198;-70
2023/07/08 02:34:41;;;;;;;4.97;3.03;;;10.70;99.90;;;;;;5055339;28;20664;-70
2023/07/08 02:37:28;;;;;;;4.47;2.90;;;10.70;99.90;;;;;;5054996;28;20204;-70
2023/07/08 02:40:15;;;;;;;7.50;3.07;;;10.70;99.90;;;;;;5055035;28;20239;-70
2023/07/08 02:43:02;;;;;;;5.23;2.70;;;10.70;99.90;;;;;;5055190;28;20669;-70
2023/07/08 02:45:52;;;;;;;6.97;3.47;;;10.70;99.90;;;;;;5055014;28;20206;-70
2023/07/08 02:48:39;;;;;;;6.03;2.77;;;10.70;99.90;;;;;;5034951;28;20280;-70
2023/07/08 02:51:26;;;;;;;3.50;2.70;;;10.70;99.90;;;;;;5034840;28;20250;-70
2023/07/08 02:54:13;;;;;;;11.93;2.73;;;10.70;99.90;;;;;;5034310;28;20326;-70
2023/07/08 02:57:01;;;;;;;4.23;3.00;;;10.70;99.90;;;;;;5034842;28;20210;-70
2023/07/08 02:59:48;;;;;;;3.47;2.60;;;10.70;99.90;;;;;;5034713;28;20207;-70
2023/07/08 03:02:36;;;;;;;4.40;2.83;;;10.60;99.90;;;;;;5034958;28;20245;-70
2023/07/08 03:05:24;;;;;;;7.30;2.93;;;10.70;99.90;;;;;;5034527;28;20227;-70
2023/07/08 03:08:11;;;;;;;4.27;2.90;;;10.70;99.90;;;;;;5034584;28;20213;-70
2023/07/08 03:10:59;;;;;;;6.27;2.87;;;10.60;99.90;;;;;;5034577;28;20207;-70
2023/07/08 03:13:46;;;;;;;3.67;2.83;;;10.70;99.90;;;;;;5034556;28;20205;-70
2023/07/08 03:16:33;;;;;;;6.80;3.10;;;10.70;99.90;;;;;;5034420;28;20231;-70
2023/07/08 03:19:22;;;;;;;7.23;3.17;;;10.70;99.90;;;;;;5033661;28;20208;-70
2023/07/08 03:22:09;;;;;;;6.47;2.73;;;10.70;99.90;;;;;;5034608;28;20608;-70
2023/07/08 03:24:56;;;;;;;8.03;3.10;;;10.70;99.90;;;;;;5034214;28;20230;-70
2023/07/08 03:27:43;;;;;;;6.77;3.23;;;10.80;99.90;;;;;;5034543;28;20669;-70
2023/07/08 03:30:30;;;;;;;5.67;3.07;;;10.90;99.90;;;;;;5034442;28;20199;-70
2023/07/08 03:33:17;;;;;;;10.10;3.50;;;11.00;99.90;;;;;;5034139;28;20658;-70
2023/07/08 03:36:12;;;;;;;6.53;3.10;;;11.00;99.90;;;;;;5034079;28;20307;-70
2023/07/08 03:39:00;;;;;;;5.47;2.80;;;11.10;99.90;;;;;;5033913;28;20250;-70
2023/07/08 03:41:48;;;;;;;3.63;3.00;;;11.10;99.90;;;;;;5034260;28;20202;-70
2023/07/08 03:44:35;;;;;;;4.93;3.30;;;11.20;99.90;;;;;;5033868;28;20226;-70
2023/07/08 03:47:22;;;;;;;6.03;2.90;;;11.20;99.90;;;;;;5059053;28;20205;-70
2023/07/08 03:50:19;;;;;;;4.03;2.70;;;11.30;99.90;;;;;;5072932;28;20241;-71
2023/07/08 03:53:09;;;;;;;6.47;3.03;;;11.40;99.90;;;;;;5073326;28;20232;-70
2023/07/08 03:55:57;;;;;;;5.77;2.93;;;11.50;99.90;;;;;;5073018;28;20198;-70
2023/07/08 03:58:44;;;;;;;4.67;3.43;;;11.60;99.90;;;;;;5073793;28;20690;-70
2023/07/08 04:01:31;;;;;;;4.63;3.10;;;11.70;99.90;;;;;;5072902;28;20694;-70
2023/07/08 04:04:18;;;;;;;4.10;3.20;;;11.80;99.90;;;;;;5072726;28;20207;-70
2023/07/08 04:07:05;;;;;;;5.40;3.27;;;11.90;99.90;;;;;;5073026;28;20662;-71
2023/07/08 04:09:54;;;;;;;7.47;3.60;;;12.00;99.90;;;;;;5072723;28;20195;-70
2023/07/08 04:12:41;;;;;;;5.80;3.43;;;12.20;99.90;;;;;;5072549;28;20212;-71
2023/07/08 04:15:28;;;;;;;6.30;3.97;;;12.30;99.90;;;;;;5072502;28;20192;-70
2023/07/08 04:18:16;;;;;;;11.13;5.03;;;12.50;99.90;;;;;;5072901;28;20227;-71
2023/07/08 04:21:03;;;;;;;12.30;6.60;;;12.60;99.90;;;;;;5072880;28;20659;-71
2023/07/08 04:23:50;;;;;;;8.73;5.00;;;12.80;99.90;;;;;;5072520;28;20225;-71
2023/07/08 04:26:39;;;;;;;7.87;4.90;;;12.90;99.90;;;;;;5073129;28;20281;-71
2023/07/08 04:29:26;;;;;;;8.97;5.07;;;13.00;99.90;;;;;;5072875;28;20203;-71
2023/07/08 04:32:13;;;;;;;8.10;4.87;;;13.10;99.90;;;;;;5072382;28;20207;-71
2023/07/08 04:35:00;;;;;;;8.67;4.57;;;13.20;99.90;;;;;;5072902;28;20190;-70
2023/07/08 04:37:47;;;;;;;12.03;5.10;;;13.40;99.90;;;;;;5072705;28;20197;-71
2023/07/08 04:40:36;;;;;;;15.37;7.10;;;13.60;99.90;;;;;;5072464;28;20192;-71
2023/07/08 04:43:28;;;;;;;13.03;7.10;;;13.80;99.90;;;;;;5072182;28;20303;-71
2023/07/08 04:46:34;;;;;;;12.23;6.63;;;14.00;99.90;;;;;;5068500;28;20204;-71
2023/07/08 04:49:21;;;;;;;15.50;6.33;;;14.20;99.90;;;;;;5052378;28;20232;-70
2023/07/08 04:52:09;;;;;;;12.27;6.43;;;14.30;99.90;;;;;;5052911;28;20587;-70
2023/07/08 04:54:56;;;;;;;14.37;7.17;;;14.50;99.90;;;;;;5052905;28;20664;-71
2023/07/08 04:57:43;;;;;;;12.40;6.80;;;14.60;99.90;;;;;;5052602;28;20219;-71
2023/07/08 05:00:32;;;;;;;17.13;7.57;;;14.80;99.90;;;;;;5052809;28;20200;-71
2023/07/08 05:03:19;;;;;;;12.77;7.63;;;15.00;99.90;;;;;;5052722;28;20251;-70
2023/07/08 05:06:06;;;;;;;13.83;7.60;;;15.20;99.90;;;;;;5052534;28;20203;-70
2023/07/08 05:08:53;;;;;;;14.23;7.70;;;15.30;99.90;;;;;;5052418;28;20197;-71
2023/07/08 05:11:40;;;;;;;11.87;7.67;;;15.50;99.90;;;;;;5052377;28;20250;-70
2023/07/08 05:14:28;;;;;;;13.20;8.50;;;15.70;99.90;;;;;;5052462;28;20695;-71
2023/07/08 05:17:16;;;;;;;19.07;8.20;;;15.90;99.90;;;;;;5052513;28;20205;-70
2023/07/08 05:20:04;;;;;;;12.73;8.40;;;16.10;99.90;;;;;;5052609;28;20249;-70
2023/07/08 05:22:51;;;;;;;12.90;8.00;;;16.30;99.90;;;;;;5052306;28;20207;-71
2023/07/08 05:25:38;;;;;;;13.63;7.77;;;16.50;99.90;;;;;;5052451;28;20211;-70
2023/07/08 05:28:26;;;;;;;14.80;7.70;;;16.70;99.90;;;;;;5052266;28;20197;-71
2023/07/08 05:31:13;;;;;;;15.03;8.40;;;16.90;99.90;;;;;;5052250;28;20558;-71
2023/07/08 05:34:01;;;;;;;12.57;7.77;;;17.10;99.90;;;;;;5052234;28;20201;-71
2023/07/08 05:36:49;;;;;;;11.27;6.90;;;17.30;99.90;;;;;;5052115;28;20201;-71
2023/07/08 05:39:36;;;;;;;8.40;5.97;;;17.50;99.90;;;;;;5052296;28;20306;-71
2023/07/08 05:42:23;;;;;;;12.83;6.00;;;17.60;99.90;;;;;;5052096;28;20217;-71
2023/07/08 05:45:11;;;;;;;14.00;6.03;;;17.90;99.90;;;;;;5055957;28;20210;-71
2023/07/08 05:47:58;;;;;;;9.50;5.40;;;18.10;99.90;;;;;;5073679;28;20570;-71
2023/07/08 05:50:47;;;;;;;9.00;5.03;;;18.30;99.90;;;;;;5076034;28;20203;-71
2023/07/08 05:53:34;;;;;;;9.40;5.17;;;18.50;99.90;;;;;;5075518;28;20205;-71
2023/07/08 05:56:22;;;;;;;8.97;6.03;;;18.60;99.90;;;;;;5075632;28;20192;-71
2023/07/08 05:59:09;;;;;;;15.73;6.47;;;18.90;99.90;;;;;;5075790;28;20214;-71
2023/07/08 06:01:56;;;;;;;10.97;6.60;;;19.00;99.90;;;;;;5075253;28;20208;-71
2023/07/08 06:04:43;;;;;;;11.83;5.40;;;19.20;99.90;;;;;;5075306;28;20224;-71
2023/07/08 06:07:32;;;;;;;14.07;6.03;;;19.40;99.90;;;;;;5075859;28;20201;-71
2023/07/08 06:10:20;;;;;;;12.27;5.77;;;19.60;99.90;;;;;;5075004;28;20291;-71
2023/07/08 06:13:07;;;;;;;9.80;4.80;;;19.80;99.90;;;;;;5075692;28;20254;-71
2023/07/08 06:15:54;;;;;;;9.07;4.60;;;20.00;99.90;;;;;;5075047;28;20208;-71
2023/07/08 06:18:41;;;;;;;6.60;3.83;;;20.20;99.90;;;;;;5074854;28;20569;-71
2023/07/08 06:21:28;;;;;;;7.83;3.67;;;20.40;99.90;;;;;;5074724;28;20203;-71
2023/07/08 06:24:17;;;;;;;5.83;4.10;;;20.50;99.90;;;;;;5075507;28;20192;-71
2023/07/08 06:27:05;;;;;;;6.03;3.40;;;20.60;99.90;;;;;;5074635;28;20196;-71
2023/07/08 06:29:52;;;;;;;5.50;3.50;;;20.80;99.90;;;;;;5075527;28;20204;-71
2023/07/08 06:32:39;;;;;;;7.37;3.80;;;20.90;99.90;;;;;;5074627;28;20199;-71
2023/07/08 06:35:26;;;;;;;7.57;3.50;;;21.00;99.90;;;;;;5074642;28;20200;-71
2023/07/08 06:38:13;;;;;;;8.13;3.40;;;21.10;99.90;;;;;;5074969;28;20220;-71
2023/07/08 06:41:02;;;;;;;5.30;3.40;;;21.30;99.90;;;;;;5074513;28;20204;-71
2023/07/08 06:43:49;;;;;;;8.30;3.10;;;21.40;99.90;;;;;;5074364;28;20196;-71
2023/07/08 06:46:36;;;;;;;7.07;3.27;;;21.60;99.90;;;;;;5067991;28;20189;-71
2023/07/08 06:49:24;;;;;;;3.97;2.70;;;21.70;99.90;;;;;;5054586;28;20275;-71
2023/07/08 06:52:11;;;;;;;5.30;3.20;;;21.80;99.90;;;;;;5054916;28;20201;-71
2023/07/08 06:54:58;;;;;;;10.00;3.47;;;21.90;98.70;;;;;;5053386;28;20204;-71
2023/07/08 06:57:47;;;;;;;5.83;2.97;;;22.00;97.80;;;;;;5054748;28;20280;-71
2023/07/08 07:00:34;;;;;;;6.30;3.13;;;22.20;91.10;;;;;;5055206;28;20236;-71
2023/07/08 07:03:21;;;;;;;6.50;3.40;;;22.30;91.80;;;;;;5054793;28;20205;-71
2023/07/08 07:06:08;;;;;;;4.50;3.10;;;22.30;90.90;;;;;;5054652;28;20346;-71
2023/07/08 07:08:55;;;;;;;8.17;2.80;;;22.40;92.60;;;;;;5054588;28;20569;-71
2023/07/08 07:11:42;;;;;;;5.50;3.10;;;22.60;88.90;;;;;;5054489;28;20197;-71
2023/07/08 07:14:31;;;;;;;5.37;2.50;;;22.70;90.10;;;;;;5054438;28;20197;-71
2023/07/08 07:17:18;;;;;;;6.17;3.00;;;22.70;90.70;;;;;;5053643;28;20283;-71
2023/07/08 07:20:07;;;;;;;3.30;2.37;;;22.90;85.40;;;;;;5054322;28;20202;-71
2023/07/08 07:22:54;;;;;;;4.93;2.37;;;23.00;81.20;;;;;;5054518;28;20201;-71
2023/07/08 07:25:41;;;;;;;11.00;3.00;;;23.10;76.10;;;;;;5054221;28;20252;-71
2023/07/08 07:28:28;;;;;;;5.13;3.20;;;23.20;76.90;;;;;;5054468;28;20327;-71
2023/07/08 07:31:17;;;;;;;4.33;2.97;;;23.40;77.90;;;;;;5054052;28;20216;-71
2023/07/08 07:34:04;;;;;;;7.87;3.77;;;23.40;77.00;;;;;;5054389;28;20279;-71
2023/07/08 07:36:51;;;;;;;4.97;3.63;;;23.60;79.70;;;;;;5054249;28;20205;-71
2023/07/08 07:39:38;;;;;;;3.83;3.20;;;23.70;82.90;;;;;;5053970;28;20696;-71
2023/07/08 07:42:28;;;;;;;4.72;3.50;;;23.90;79.50;;;;;;5054143;28;20653;-71
2023/07/08 07:45:15;;;;;;;6.93;3.28;;;24.10;82.30;;;;;;5053914;28;20224;-71
2023/07/08 07:48:04;;;;;;;5.65;3.50;;;24.10;82.30;;;;;;5072134;28;20208;-71
2023/07/08 07:50:52;;;;;;;7.25;3.53;;;23.60;76.40;;;;;;5073777;28;20209;-71
2023/07/08 07:53:39;;;;;;;3.70;2.90;;;23.80;82.60;;;;;;5072035;28;20211;-71
2023/07/08 07:56:26;;;;;;;3.33;2.80;;;24.00;79.80;;;;;;5072897;28;20235;-71
2023/07/08 07:59:13;;;;;;;3.92;2.78;;;24.00;78.10;;;;;;5072868;28;20201;-71
2023/07/08 08:02:01;;;;;;;3.45;2.72;;;24.30;80.20;;;;;;5072912;28;20207;-71
2023/07/08 08:04:49;;;;;;;5.43;2.90;;;24.40;72.30;;;;;;5073358;28;20689;-71
2023/07/08 08:07:37;;;;;;;6.35;2.50;;;24.60;73.50;;;;;;5072534;28;20622;-71
2023/07/08 08:10:24;;;;;;;3.13;2.38;;;24.70;71.80;;;;;;5073033;28;20203;-71
2023/07/08 08:13:11;;;;;;;3.55;2.30;;;24.80;66.00;;;;;;5072188;28;20307;-71
2023/07/08 08:15:59;;;;;;;10.40;3.38;;;24.90;58.50;;;;;;5073271;28;20192;-71
2023/07/08 08:18:46;;;;;;;3.55;2.75;;;24.40;60.60;;;;;;5072869;28;20610;-72
2023/07/08 08:21:34;;;;;;;4.53;3.10;;;24.70;62.60;;;;;;5072644;28;20200;-72
2023/07/08 08:24:22;;;;;;;5.18;2.50;;;25.00;64.10;;;;;;5072465;28;20551;-71
2023/07/08 08:27:09;;;;;;;3.88;2.20;;;24.70;59.80;;;;;;5072423;28;20201;-72
2023/07/08 08:29:56;;;;;;;3.95;2.38;;;24.60;53.50;;;;;;5073057;28;20208;-71
2023/07/08 08:32:43;;;;;;;5.18;2.63;;;24.50;56.70;;;;;;5072657;28;20283;-71
2023/07/08 08:35:30;;;;;;;6.40;2.58;;;24.60;58.00;;;;;;5072805;28;20257;-71
2023/07/08 08:38:19;;;;;;;5.57;2.60;;;24.90;60.60;;;;;;5072452;28;20217;-71
2023/07/08 08:41:10;;;;;;;5.82;2.13;;;25.00;57.40;;;;;;5072235;28;20215;-71
2023/07/08 08:43:57;;;;;;;3.10;2.10;;;25.00;53.70;;;;;;5072415;28;20233;-71
2023/07/08 08:46:46;;;;;;;4.90;2.17;;;25.30;56.70;;;;;;5064566;28;20209;-71
2023/07/08 08:49:36;;;;;;;5.63;2.40;;;25.70;58.70;;;;;;5052435;28;20237;-71
2023/07/08 08:52:23;;;;;;;4.55;2.30;;;26.00;54.40;;;;;;5052734;28;20208;-71
2023/07/08 08:55:14;;;;;;;2.10;1.88;;;26.30;53.30;;;;;;5052700;28;20280;-71
2023/07/08 08:58:07;;;;;;;5.40;2.08;;;26.50;54.30;;;;;;5053097;28;20201;-71
2023/07/08 09:00:55;;;;;;;2.40;1.85;;;26.60;49.80;;;;;;5052594;28;20193;-71
2023/07/08 09:03:46;;;;;;;4.10;1.52;;;26.70;53.50;;;;;;5052557;28;20246;-71
2023/07/08 09:06:34;;;;;;;3.72;1.80;;;26.70;51.30;;;;;;5052476;28;20224;-71
2023/07/08 09:09:25;;;;;;;2.42;1.73;;;26.70;49.10;;;;;;5052595;28;20201;-71
2023/07/08 09:12:17;;;;;;;2.42;1.67;;;26.90;50.30;;;;;;5052395;28;20201;-71
2023/07/08 09:15:13;;;;;;;3.08;1.90;;;27.00;49.30;;;;;;5052664;28;20262;-70
2023/07/08 09:18:13;;;;;;;6.07;1.80;;;27.10;50.00;;;;;;5051526;28;20354;-71
2023/07/08 09:21:00;;;;;;;5.65;1.48;;;27.20;47.50;;;;;;5052279;28;20232;-71
2023/07/08 09:23:48;;;;;;;3.33;1.73;;;27.30;44.30;;;;;;5052303;28;20201;-70
2023/07/08 09:26:35;;;;;;;3.67;1.90;;;27.10;44.20;;;;;;5052495;28;20213;-71
2023/07/08 09:29:24;;;;;;;3.08;1.80;;;27.30;49.00;;;;;;5052236;28;20208;-71
2023/07/08 09:32:17;;;;;;;2.58;1.90;;;27.50;46.40;;;;;;5052257;28;20200;-71
2023/07/08 09:35:05;;;;;;;8.20;1.80;;;27.70;45.80;;;;;;5052181;28;20197;-71
2023/07/08 09:37:52;;;;;;;2.10;1.80;;;27.80;43.60;;;;;;5052312;28;20240;-71
2023/07/08 09:40:39;;;;;;;5.07;1.77;;;27.80;43.90;;;;;;5052353;28;20201;-71
2023/07/08 09:43:28;;;;;;;9.48;2.50;;;28.00;45.50;;;;;;5052271;28;20201;-71
2023/07/08 09:46:16;;;;;;;3.47;1.65;;;28.20;44.80;;;;;;5055388;28;20243;-71
2023/07/08 09:49:11;;;;;;;2.40;1.55;;;28.20;41.90;;;;;;5072192;28;20298;-70
2023/07/08 09:51:58;;;;;;;2.55;1.60;;;27.40;42.50;;;;;;5071769;28;20690;-71
2023/07/08 09:54:46;;;;;;;4.40;1.80;;;27.40;45.30;;;;;;5072062;28;20663;-73
2023/07/08 09:57:33;;;;;;;3.25;1.90;;;27.40;47.50;;;;;;5071677;28;20204;-71
2023/07/08 10:00:27;;;;;;;2.55;1.98;;;27.40;44.90;;;;;;5071409;28;20197;-71
2023/07/08 10:03:18;;;;;;;4.70;2.00;;;27.00;41.20;;;;;;5071481;28;20208;-72
2023/07/08 10:06:07;;;;;;;4.80;1.85;;;26.80;41.70;;;;;;5071381;28;20301;-71
2023/07/08 10:08:55;;;;;;;3.83;1.95;;;26.60;43.50;;;;;;5071403;28;20204;-71
2023/07/08 10:11:43;;;;;;;3.85;2.17;;;26.70;43.90;;;;;;5071662;28;20575;-71
2023/07/08 10:14:33;;;;;;;4.15;1.70;;;26.80;47.90;;;;;;5071350;28;20283;-70
2023/07/08 10:17:20;;;;;;;3.47;2.08;;;27.20;44.90;;;;;;5071229;28;20192;-71
2023/07/08 10:20:12;;;;;;;10.60;2.20;;;27.50;47.70;;;;;;5071465;28;20204;-71
2023/07/08 10:23:05;;;;;;;3.60;1.90;;;27.70;45.30;;;;;;5071801;28;20196;-71
2023/07/08 10:25:57;;;;;;;4.00;2.15;;;27.60;48.70;;;;;;5071135;28;20243;-70
2023/07/08 10:28:46;;;;;;;2.63;2.10;;;27.80;41.60;;;;;;5072244;28;20200;-71
2023/07/08 10:31:36;;;;;;;4.03;2.00;;;27.50;45.30;;;;;;5074616;28;20189;-71
2023/07/08 10:34:33;;;;;;;6.07;1.90;;;27.50;43.30;;;;;;5074684;28;20208;-71
2023/07/08 10:37:27;;;;;;;4.18;1.77;;;27.90;48.00;;;;;;5074763;28;20193;-71
2023/07/08 10:40:34;;;;;;;2.30;1.83;;;28.30;45.00;;;;;;5075258;28;20201;-71
2023/07/08 10:43:49;;;;;;;5.40;2.30;;;28.50;44.60;;;;;;5074313;28;20200;-71
2023/07/08 10:46:41;;;;;;;4.50;1.90;;;28.80;46.20;;;;;;5067985;28;20217;-71
2023/07/08 10:49:48;;;;;;;5.82;2.55;;;28.90;39.80;;;;;;5054816;28;20600;-71
2023/07/08 10:52:43;;;;;;;2.65;2.00;;;29.00;42.60;;;;;;5054876;28;20226;-71
2023/07/08 10:55:35;;;;;;;3.45;2.00;;;28.10;38.50;;;;;;5054773;28;20208;-71
2023/07/08 10:58:40;;;;;;;2.92;1.83;;;28.10;39.10;;;;;;5054762;28;20201;-72
2023/07/08 11:01:29;;;;;;;7.38;2.08;;;28.30;42.40;;;;;;5054655;28;20201;-71
2023/07/08 11:04:33;;;;;;;6.05;2.15;;;28.60;41.80;;;;;;5054658;28;20201;-71
2023/07/08 11:07:28;;;;;;;3.40;2.22;;;28.90;41.70;;;;;;5054487;28;20216;-71
2023/07/08 11:10:18;;;;;;;2.55;2.10;;;29.00;42.50;;;;;;5053865;28;20197;-71
2023/07/08 11:13:07;;;;;;;2.70;1.75;;;28.90;42.00;;;;;;5054602;28;20197;-71
2023/07/08 11:15:58;;;;;;;4.45;2.05;;;29.10;42.30;;;;;;5054638;28;20625;-71
2023/07/08 11:18:49;;;;;;;3.85;2.25;;;29.40;42.00;;;;;;5054364;28;20228;-71
2023/07/08 11:21:38;;;;;;;2.42;1.75;;;29.70;41.40;;;;;;5054311;28;20210;-70
2023/07/08 11:24:27;;;;;;;3.67;1.80;;;29.40;40.60;;;;;;5054258;28;20197;-71
2023/07/08 11:27:19;;;;;;;5.45;2.00;;;29.40;41.10;;;;;;5054121;28;20217;-70
2023/07/08 11:30:07;;;;;;;2.28;1.80;;;29.30;43.70;;;;;;5054189;28;20271;-71
2023/07/08 11:32:58;;;;;;;3.08;1.90;;;29.40;43.70;;;;;;5054347;28;20197;-71
2023/07/08 11:35:48;;;;;;;2.35;2.00;;;29.30;38.00;;;;;;5054359;28;20201;-70
2023/07/08 11:38:35;;;;;;;8.75;2.03;;;28.10;44.00;;;;;;5054218;28;20755;-70
2023/07/08 11:41:23;;;;;;;4.75;1.90;;;27.90;39.50;;;;;;5053168;28;20197;-70
2023/07/08 11:44:12;;;;;;;6.13;2.00;;;27.90;43.40;;;;;;5054216;28;20217;-70
2023/07/08 11:47:00;;;;;;;5.70;2.13;;;28.20;40.30;;;;;;5063545;28;20232;-70
2023/07/08 11:49:47;;;;;;;3.95;2.03;;;28.70;39.90;;;;;;5073086;28;20322;-70
2023/07/08 11:52:34;;;;;;;2.92;2.08;;;29.00;36.80;;;;;;5073175;28;20196;-69
2023/07/08 11:55:28;;;;;;;3.13;2.00;;;28.80;39.00;;;;;;5073220;28;20610;-70
2023/07/08 11:58:21;;;;;;;3.88;1.92;;;29.10;40.40;;;;;;5073549;28;20257;-70
2023/07/08 12:01:20;;;;;;;2.47;1.85;;;29.00;38.60;;;;;;5073502;28;20558;-70
2023/07/08 12:04:22;;;;;;;3.78;2.05;;;29.40;40.70;;;;;;5072857;28;20232;-70
2023/07/08 12:07:15;;;;;;;2.63;1.67;;;29.60;35.00;;;;;;5072795;28;20219;-69
2023/07/08 12:10:05;;;;;;;3.47;2.20;;;29.00;37.80;;;;;;5073368;28;20207;-70
2023/07/08 12:12:53;;;;;;;6.63;2.00;;;28.70;37.20;;;;;;5073643;28;20204;-69
2023/07/08 12:15:40;;;;;;;5.13;1.90;;;28.60;40.80;;;;;;5073387;28;20201;-69
2023/07/08 12:18:31;;;;;;;4.10;1.90;;;28.90;37.40;;;;;;5072731;28;20254;-69
2023/07/08 12:21:19;;;;;;;6.05;2.25;;;29.00;38.80;;;;;;5072434;28;20200;-69
2023/07/08 12:24:06;;;;;;;4.00;2.55;;;29.40;40.60;;;;;;5072623;28;20201;-70
2023/07/08 12:26:53;;;;;;;2.80;1.88;;;29.30;36.80;;;;;;5073000;28;20301;-69
2023/07/08 12:29:41;;;;;;;4.20;2.05;;;29.10;39.90;;;;;;5072423;28;20734;-69
2023/07/08 12:32:28;;;;;;;2.55;2.00;;;28.60;39.50;;;;;;5073343;28;20737;-69
2023/07/08 12:35:22;;;;;;;9.35;2.13;;;28.60;40.30;;;;;;5072165;28;20224;-69
2023/07/08 12:38:15;;;;;;;2.97;2.00;;;29.20;40.50;;;;;;5072215;28;20220;-69
2023/07/08 12:41:06;;;;;;;3.42;2.10;;;29.30;36.90;;;;;;5072942;28;20204;-69
2023/07/08 12:43:53;;;;;;;2.67;1.70;;;29.10;38.00;;;;;;5072358;28;20686;-69
2023/07/08 12:46:41;;;;;;;3.55;1.90;;;29.10;38.00;;;;;;5065819;28;20351;-68
2023/07/08 12:49:29;;;;;;;5.32;2.08;;;29.00;35.60;;;;;;5052682;28;20237;-69
2023/07/08 12:52:22;;;;;;;4.68;2.08;;;29.50;40.90;;;;;;5052853;28;20204;-69
2023/07/08 12:55:10;;;;;;;5.28;2.00;;;29.60;38.30;;;;;;5052591;28;20690;-68
2023/07/08 12:57:57;;;;;;;4.50;2.30;;;30.00;36.50;;;;;;5052806;28;20205;-68
2023/07/08 13:00:45;;;;;;;3.85;1.98;;;30.00;35.70;;;;;;5052802;28;20573;-69
2023/07/08 13:03:35;;;;;;;4.50;2.13;;;29.30;39.20;;;;;;5052477;28;20204;-68
2023/07/08 13:06:24;;;;;;;3.45;1.90;;;29.80;40.30;;;;;;5052382;28;20298;-68
2023/07/08 13:09:38;;;;;;;2.45;1.70;;;30.40;36.60;;;;;;5052583;28;20209;-68
2023/07/08 13:12:26;;;;;;;4.78;1.83;;;30.70;33.90;;;;;;5052737;28;20803;-69
2023/07/08 13:15:17;;;;;;;2.10;1.60;;;30.10;34.10;;;;;;5052610;28;20205;-69
2023/07/08 13:18:04;;;;;;;2.20;1.90;;;30.10;32.80;;;;;;5052585;28;20247;-69
2023/07/08 13:20:53;;;;;;;1.83;1.50;;;29.80;34.50;;;;;;5052380;28;20209;-68
2023/07/08 13:23:40;;;;;;;3.00;1.67;;;29.60;30.30;;;;;;5052535;28;20283;-68
2023/07/08 13:26:30;;;;;;;3.05;1.50;;;29.10;31.20;;;;;;5052487;28;20227;-68
2023/07/08 13:29:18;;;;;;;2.90;1.73;;;28.70;30.90;;;;;;5052239;28;20197;-68
2023/07/08 13:32:06;;;;;;;2.72;1.55;;;29.50;32.60;;;;;;5052468;28;20197;-68
2023/07/08 13:34:53;;;;;;;2.30;1.60;;;29.90;32.80;;;;;;5052448;28;20581;-68
2023/07/08 13:37:40;;;;;;;1.77;1.40;;;29.70;33.10;;;;;;5052379;28;20200;-68
2023/07/08 13:40:28;;;;;;;1.80;1.48;;;29.80;31.90;;;;;;5052202;28;20197;-71
2023/07/08 13:43:17;;;;;;;5.75;1.77;;;29.10;32.10;;;;;;5052279;28;20671;-69
2023/07/08 13:46:04;;;;;;;2.28;1.52;;;29.00;30.50;;;;;;5054009;28;20197;-69
2023/07/08 13:48:51;;;;;;;3.08;1.60;;;28.90;31.70;;;;;;5071436;28;20225;-68
2023/07/08 13:51:38;;;;;;;1.90;1.42;;;28.60;33.50;;;;;;5072300;28;20204;-69
2023/07/08 13:54:28;;;;;;;2.60;1.73;;;29.10;34.60;;;;;;5071448;28;20201;-69
2023/07/08 13:57:17;;;;;;;1.80;1.60;;;29.40;33.00;;;;;;5070316;28;20196;-68
2023/07/08 14:00:08;;;;;;;2.63;1.55;;;29.10;31.50;;;;;;5071422;28;20228;-68
2023/07/08 14:02:55;;;;;;;2.72;1.50;;;29.00;35.40;;;;;;5071996;28;20201;-69
2023/07/08 14:05:44;;;;;;;3.03;1.40;;;29.40;31.20;;;;;;5075068;28;20211;-69
2023/07/08 14:08:31;;;;;;;2.70;1.60;;;29.40;30.50;;;;;;5075355;28;20227;-68
2023/07/08 14:11:18;;;;;;;7.30;1.60;;;29.50;30.00;;;;;;5075640;28;20219;-68
2023/07/08 14:14:05;;;;;;;4.15;1.58;;;30.20;30.80;;;;;;5075207;28;20201;-69
2023/07/08 14:16:54;;;;;;;4.70;1.70;;;30.50;35.60;;;;;;5075163;28;20254;-68
2023/07/08 14:19:41;;;;;;;2.10;1.63;;;30.20;34.00;;;;;;5074987;28;20205;-70
2023/07/08 14:22:29;;;;;;;3.65;1.50;;;29.80;30.00;;;;;;5075520;28;20286;-69
2023/07/08 14:25:16;;;;;;;3.90;2.10;;;29.60;35.00;;;;;;5074854;28;20232;-68
2023/07/08 14:28:05;;;;;;;2.60;1.70;;;29.60;33.80;;;;;;5075383;28;20303;-69
2023/07/08 14:30:52;;;;;;;2.30;1.80;;;29.80;38.90;;;;;;5075079;28;20272;-69
2023/07/08 14:33:41;;;;;;;6.63;2.13;;;30.30;35.10;;;;;;5074616;28;20204;-68
2023/07/08 14:36:28;;;;;;;5.82;1.90;;;30.50;33.30;;;;;;5074593;28;20696;-68